createdAt,value
2022-10-18T00:00:01.290Z,100.00
2022-10-18T00:02:28.037Z,100.00
2022-10-18T00:04:54.603Z,100.00
2022-10-18T00:07:21.131Z,100.00
2022-10-18T00:09:47.710Z,100.00
2022-10-18T00:12:14.240Z,100.00
2022-10-18T00:14:40.769Z,100.00
2022-10-18T00:17:07.401Z,100.00
2022-10-18T00:19:33.986Z,100.00
2022-10-18T00:22:00.539Z,100.00
2022-10-18T00:24:27.107Z,100.00
2022-10-18T00:26:53.676Z,100.00
2022-10-18T00:29:20.231Z,100.00
2022-10-18T00:31:46.844Z,100.00
2022-10-18T00:34:16.245Z,100.00
2022-10-18T00:36:44.124Z,100.00
2022-10-18T00:39:16.670Z,100.00
2022-10-18T00:41:44.239Z,100.00
2022-10-18T00:44:10.733Z,100.00
2022-10-18T00:46:42.743Z,100.00
2022-10-18T00:49:16.303Z,100.00
2022-10-18T00:51:44.966Z,100.00
2022-10-18T00:54:13.327Z,100.00
2022-10-18T00:56:39.973Z,100.00
2022-10-18T00:59:07.584Z,100.00
2022-10-18T01:01:34.331Z,100.00
2022-10-18T01:04:00.963Z,100.00
2022-10-18T01:06:28.992Z,100.00
2022-10-18T01:09:13.780Z,100.00
2022-10-18T01:11:55.508Z,100.00
2022-10-18T01:14:22.014Z,100.00
2022-10-18T01:17:09.859Z,100.00
2022-10-18T01:20:15.616Z,100.00
2022-10-18T01:22:48.076Z,100.00
2022-10-18T01:25:47.119Z,100.00
2022-10-18T01:28:38.135Z,100.00
2022-10-18T01:31:15.727Z,100.00
2022-10-18T01:33:45.170Z,100.00
2022-10-18T01:36:21.110Z,100.00
2022-10-18T01:38:51.393Z,100.00
2022-10-18T01:41:20.365Z,100.00
2022-10-18T01:43:50.148Z,100.00
2022-10-18T01:46:22.234Z,100.00
2022-10-18T01:48:49.872Z,100.00
2022-10-18T01:51:20.319Z,100.00
2022-10-18T01:53:47.202Z,100.00
2022-10-18T01:56:18.199Z,100.00
2022-10-18T01:58:55.762Z,100.00
2022-10-18T02:01:47.219Z,100.00
2022-10-18T02:04:28.802Z,100.00
2022-10-18T02:07:15.584Z,100.00
2022-10-18T02:10:10.770Z,100.00
2022-10-18T02:12:42.107Z,100.00
2022-10-18T02:15:12.155Z,100.00
2022-10-18T02:17:40.238Z,100.00
2022-10-18T02:20:10.041Z,100.00
2022-10-18T02:22:39.610Z,100.00
2022-10-18T02:25:11.151Z,100.00
2022-10-18T02:27:38.218Z,100.00
2022-10-18T02:30:06.032Z,100.00
2022-10-18T02:32:38.492Z,100.00
2022-10-18T02:35:10.986Z,100.00
2022-10-18T02:37:40.219Z,100.00
2022-10-18T02:40:09.836Z,100.00
2022-10-18T02:42:38.796Z,100.00
2022-10-18T02:45:06.333Z,100.00
2022-10-18T02:47:33.206Z,100.00
2022-10-18T02:49:59.951Z,100.00
2022-10-18T02:52:26.477Z,100.00
2022-10-18T02:54:53.004Z,100.00
2022-10-18T02:57:19.766Z,100.00
2022-10-18T02:59:46.284Z,100.00
2022-10-18T03:02:12.822Z,100.00
2022-10-18T03:04:39.427Z,100.00
2022-10-18T03:07:05.986Z,100.00
2022-10-18T03:09:32.550Z,100.00
2022-10-18T03:11:59.577Z,100.00
2022-10-18T03:14:26.115Z,100.00
2022-10-18T03:16:52.630Z,100.00
2022-10-18T03:19:19.189Z,100.00
2022-10-18T03:21:45.760Z,100.00
2022-10-18T03:24:12.298Z,100.00
2022-10-18T03:26:38.871Z,100.00
2022-10-18T03:29:05.512Z,100.00
2022-10-18T03:31:32.342Z,100.00
2022-10-18T03:33:59.017Z,100.00
2022-10-18T03:36:25.655Z,100.00
2022-10-18T03:38:52.200Z,100.00
2022-10-18T03:41:19.733Z,100.00
2022-10-18T03:43:46.620Z,100.00
2022-10-18T03:46:13.164Z,100.00
2022-10-18T03:48:39.739Z,100.00
2022-10-18T03:51:06.286Z,100.00
2022-10-18T03:53:32.827Z,100.00
2022-10-18T03:55:59.452Z,100.00
2022-10-18T03:58:26.042Z,100.00
2022-10-18T04:00:54.165Z,100.00
2022-10-18T04:03:21.873Z,100.00
2022-10-18T04:05:49.687Z,100.00
2022-10-18T04:08:16.836Z,100.00
2022-10-18T04:10:44.148Z,100.00
2022-10-18T04:13:10.855Z,100.00
2022-10-18T04:15:37.656Z,100.00
2022-10-18T04:18:04.379Z,100.00
2022-10-18T04:20:30.966Z,100.00
2022-10-18T04:22:58.087Z,100.00
2022-10-18T04:25:25.449Z,100.00
2022-10-18T04:27:52.338Z,100.00
2022-10-18T04:30:18.887Z,100.00
2022-10-18T04:32:45.480Z,100.00
2022-10-18T04:35:12.004Z,100.00
2022-10-18T04:37:38.571Z,100.00
2022-10-18T04:40:05.744Z,100.00
2022-10-18T04:42:32.301Z,100.00
2022-10-18T04:44:58.841Z,100.00
2022-10-18T04:47:25.410Z,100.00
2022-10-18T04:49:51.935Z,100.00
2022-10-18T04:52:18.759Z,100.00
2022-10-18T04:54:45.407Z,100.00
2022-10-18T04:57:11.938Z,100.00
2022-10-18T04:59:38.482Z,100.00
2022-10-18T05:02:05.140Z,100.00
2022-10-18T05:04:31.815Z,100.00
2022-10-18T05:06:58.335Z,100.00
2022-10-18T05:09:25.167Z,100.00
2022-10-18T05:11:51.768Z,100.00
2022-10-18T05:14:18.430Z,100.00
2022-10-18T05:16:45.211Z,100.00
2022-10-18T05:19:11.777Z,100.00
2022-10-18T05:21:38.312Z,100.00
2022-10-18T05:24:05.148Z,100.00
2022-10-18T05:26:31.842Z,100.00
2022-10-18T05:28:58.507Z,100.00
2022-10-18T05:31:25.137Z,100.00
2022-10-18T05:33:51.694Z,100.00
2022-10-18T05:36:18.250Z,100.00
2022-10-18T05:38:45.525Z,100.00
2022-10-18T05:41:12.776Z,100.00
2022-10-18T05:43:40.468Z,100.00
2022-10-18T05:46:13.719Z,100.00
2022-10-18T05:48:43.392Z,100.00
2022-10-18T05:51:10.065Z,100.00
2022-10-18T05:53:37.870Z,100.00
2022-10-18T05:56:05.843Z,100.00
2022-10-18T05:58:32.656Z,100.00
2022-10-18T06:01:00.886Z,100.00
2022-10-18T06:03:27.890Z,100.00
2022-10-18T06:06:09.352Z,100.00
2022-10-18T06:08:37.003Z,100.00
2022-10-18T06:11:11.761Z,100.00
2022-10-18T06:13:43.197Z,100.00
2022-10-18T06:16:10.991Z,100.00
2022-10-18T06:18:38.128Z,100.00
2022-10-18T06:21:05.115Z,100.00
2022-10-18T06:23:32.125Z,100.00
2022-10-18T06:26:00.574Z,100.00
2022-10-18T06:28:27.744Z,100.00
2022-10-18T06:30:54.782Z,100.00
2022-10-18T06:33:21.510Z,100.00
2022-10-18T06:36:02.456Z,100.00
2022-10-18T06:38:30.078Z,100.00
2022-10-18T06:41:00.371Z,100.00
2022-10-18T06:43:27.429Z,100.00
2022-10-18T06:45:54.913Z,100.00
2022-10-18T06:48:22.226Z,100.00
2022-10-18T06:50:57.045Z,100.00
2022-10-18T06:53:25.223Z,100.00
2022-10-18T06:55:51.771Z,100.00
2022-10-18T06:58:18.344Z,100.00
2022-10-18T07:00:47.630Z,100.00
2022-10-18T07:03:14.181Z,100.00
2022-10-18T07:05:40.752Z,100.00
2022-10-18T07:08:07.266Z,100.00
2022-10-18T07:10:33.906Z,100.00
2022-10-18T07:13:26.978Z,100.00
2022-10-18T07:15:47.141Z,100.00
2022-10-18T07:18:14.076Z,100.00
2022-10-18T07:20:40.893Z,100.00
2022-10-18T07:23:09.403Z,100.00
2022-10-18T07:25:36.173Z,100.00
2022-10-18T07:28:02.830Z,100.00
2022-10-18T07:30:29.371Z,100.00
2022-10-18T07:32:55.950Z,100.00
2022-10-18T07:35:22.476Z,100.00
2022-10-18T07:37:49.151Z,98.34
2022-10-18T07:40:15.815Z,94.51
2022-10-18T07:42:42.354Z,96.21
2022-10-18T07:45:09.202Z,92.95
2022-10-18T07:47:35.903Z,95.05
2022-10-18T07:50:02.715Z,91.82
2022-10-18T07:52:29.261Z,88.84
2022-10-18T07:54:55.827Z,82.82
2022-10-18T07:57:23.415Z,83.81
2022-10-18T07:59:56.167Z,81.45
2022-10-18T08:02:24.162Z,79.49
2022-10-18T08:04:50.774Z,78.95
2022-10-18T08:07:17.374Z,81.98
2022-10-18T08:09:43.912Z,80.03
2022-10-18T08:12:10.605Z,75.38
2022-10-18T08:14:37.217Z,72.42
2022-10-18T08:17:03.789Z,71.20
2022-10-18T08:19:30.381Z,69.96
2022-10-18T08:21:56.969Z,71.00
2022-10-18T08:24:23.635Z,70.46
2022-10-18T08:26:50.509Z,73.40
2022-10-18T08:29:23.875Z,69.31
2022-10-18T08:31:52.403Z,65.58
2022-10-18T08:34:19.942Z,64.87
2022-10-18T08:36:46.779Z,67.14
2022-10-18T08:39:13.313Z,65.69
2022-10-18T08:42:15.221Z,65.05
2022-10-18T08:44:50.508Z,64.18
2022-10-18T08:47:21.245Z,62.07
2022-10-18T08:49:53.749Z,63.71
2022-10-18T08:52:41.954Z,63.08
2022-10-18T08:55:29.546Z,62.12
2022-10-18T08:57:59.070Z,61.65
2022-10-18T09:00:30.849Z,62.33
2022-10-18T09:03:22.410Z,61.23
2022-10-18T09:05:56.501Z,60.03
2022-10-18T09:08:45.621Z,57.53
2022-10-18T09:11:24.390Z,59.10
2022-10-18T09:14:02.959Z,58.10
2022-10-18T09:16:54.411Z,56.82
2022-10-18T09:19:20.918Z,56.06
2022-10-18T09:21:54.555Z,57.91
2022-10-18T09:24:40.599Z,56.88
2022-10-18T09:27:19.122Z,56.23
2022-10-18T09:30:21.594Z,54.71
2022-10-18T09:32:59.763Z,55.23
2022-10-18T09:35:33.819Z,56.85
2022-10-18T09:38:09.118Z,54.79
2022-10-18T09:40:38.924Z,53.40
2022-10-18T09:43:23.572Z,52.96
2022-10-18T09:45:52.925Z,52.95
2022-10-18T09:48:28.387Z,51.87
2022-10-18T09:51:01.264Z,51.81
2022-10-18T09:53:41.051Z,51.37
2022-10-18T09:56:18.036Z,52.55
2022-10-18T09:58:47.009Z,52.23
2022-10-18T10:01:18.008Z,51.63
2022-10-18T10:03:44.760Z,51.49
2022-10-18T10:06:17.339Z,51.13
2022-10-18T10:08:48.746Z,50.87
2022-10-18T10:11:36.831Z,50.04
2022-10-18T10:14:27.347Z,49.42
2022-10-18T10:16:58.752Z,48.63
2022-10-18T10:19:32.366Z,48.69
2022-10-18T10:22:05.155Z,48.58
2022-10-18T10:24:53.562Z,47.86
2022-10-18T10:27:24.837Z,48.13
2022-10-18T10:29:56.588Z,47.74
2022-10-18T10:34:58.239Z,46.61
2022-10-18T10:37:27.948Z,46.33
2022-10-18T10:40:19.329Z,46.44
2022-10-18T10:43:18.231Z,46.38
2022-10-18T10:46:05.507Z,43.84
2022-10-18T10:48:39.292Z,42.13
2022-10-18T10:51:11.097Z,39.00
2022-10-18T10:54:11.459Z,31.81
2022-10-18T10:56:53.336Z,25.08
2022-10-18T10:59:21.145Z,22.69
2022-10-18T11:01:50.118Z,21.51
2022-10-18T11:04:30.875Z,19.84
2022-10-18T11:07:03.246Z,19.89
2022-10-18T11:10:02.371Z,19.39
2022-10-18T11:12:39.594Z,18.07
2022-10-18T11:15:14.549Z,17.84
2022-10-18T11:18:17.301Z,18.28
2022-10-18T11:20:51.946Z,16.29
2022-10-18T11:23:19.431Z,15.71
2022-10-18T11:26:34.494Z,14.96
2022-10-18T11:29:07.657Z,15.75
2022-10-18T11:31:58.830Z,15.46
2022-10-18T11:34:46.446Z,15.26
2022-10-18T11:37:38.253Z,15.67
2022-10-18T11:40:29.962Z,14.86
2022-10-18T11:43:21.021Z,15.36
2022-10-18T11:45:53.554Z,15.21
2022-10-18T11:48:58.616Z,14.28
2022-10-18T11:52:06.771Z,14.42
2022-10-18T11:55:07.733Z,14.64
2022-10-18T11:57:50.151Z,14.27
2022-10-18T12:00:45.783Z,14.55
2022-10-18T12:03:18.286Z,15.09
2022-10-18T12:05:47.238Z,15.15
2022-10-18T12:08:22.542Z,15.07
2022-10-18T12:11:05.119Z,15.41
2022-10-18T12:13:35.474Z,14.79
2022-10-18T12:16:09.573Z,14.41
2022-10-18T12:18:55.083Z,14.65
2022-10-18T12:21:25.897Z,14.15
2022-10-18T12:24:04.164Z,15.19
2022-10-18T12:26:32.454Z,15.64
2022-10-18T12:29:14.150Z,17.48
2022-10-18T12:31:48.553Z,18.05
2022-10-18T12:34:30.070Z,17.16
2022-10-18T12:37:15.051Z,16.21
2022-10-18T12:40:18.829Z,15.77
2022-10-18T12:42:50.923Z,15.63
2022-10-18T12:45:30.215Z,16.06
2022-10-18T12:48:02.681Z,16.88
2022-10-18T12:50:38.843Z,17.65
2022-10-18T12:53:16.035Z,18.97
2022-10-18T12:55:45.322Z,17.50
2022-10-18T12:58:14.711Z,16.41
2022-10-18T13:00:41.717Z,17.04
2022-10-18T13:03:17.817Z,15.75
2022-10-18T13:05:55.615Z,15.47
2022-10-18T13:08:33.211Z,14.81
2022-10-18T13:11:08.984Z,15.56
2022-10-18T13:14:05.607Z,16.00
2022-10-18T13:16:54.292Z,15.73
2022-10-18T13:19:34.204Z,15.97
2022-10-18T13:22:19.280Z,17.42
2022-10-18T13:25:02.214Z,19.40
2022-10-18T13:27:49.668Z,21.55
2022-10-18T13:30:22.033Z,23.22
2022-10-18T13:33:35.076Z,25.03
2022-10-18T13:36:05.298Z,26.14
2022-10-18T13:38:57.629Z,26.28
2022-10-18T13:41:32.760Z,26.12
2022-10-18T13:44:04.897Z,25.78
2022-10-18T13:46:34.805Z,25.25
2022-10-18T13:49:31.565Z,25.04
2022-10-18T13:52:17.031Z,25.25
2022-10-18T13:55:05.397Z,24.35
2022-10-18T13:57:53.295Z,23.67
2022-10-18T14:00:28.974Z,24.42
2022-10-18T14:03:01.683Z,24.87
2022-10-18T14:05:41.937Z,25.04
2022-10-18T14:09:06.197Z,26.02
2022-10-18T14:11:46.454Z,26.92
2022-10-18T14:14:23.095Z,28.49
2022-10-18T14:17:16.874Z,29.83
2022-10-18T14:19:52.283Z,30.82
2022-10-18T14:22:36.413Z,31.37
2022-10-18T14:25:02.990Z,32.55
2022-10-18T14:27:34.987Z,33.25
2022-10-18T14:30:09.733Z,33.76
2022-10-18T14:32:36.683Z,33.97
2022-10-18T14:37:53.216Z,36.98
2022-10-18T14:40:32.676Z,36.02
2022-10-18T14:43:14.333Z,36.81
2022-10-18T14:45:42.122Z,37.71
2022-10-18T14:48:22.028Z,37.88
2022-10-18T14:51:00.083Z,38.59
2022-10-18T14:53:35.980Z,38.12
2022-10-18T14:56:04.448Z,38.80
2022-10-18T14:58:32.020Z,41.47
2022-10-18T15:00:59.841Z,40.17
2022-10-18T15:03:28.362Z,40.65
2022-10-18T15:06:00.557Z,41.52
2022-10-18T15:08:35.911Z,40.90
2022-10-18T15:11:03.198Z,41.64
2022-10-18T15:13:31.863Z,43.01
2022-10-18T15:15:59.405Z,41.83
2022-10-18T15:18:28.057Z,42.03
2022-10-18T15:21:27.519Z,42.64
2022-10-18T15:23:55.157Z,42.46
2022-10-18T15:26:26.761Z,42.54
2022-10-18T15:28:56.468Z,42.92
2022-10-18T15:31:30.740Z,43.54
2022-10-18T15:34:12.345Z,43.70
2022-10-18T15:36:39.148Z,44.35
2022-10-18T15:39:16.641Z,45.39
2022-10-18T15:41:50.284Z,45.35
2022-10-18T15:44:16.838Z,45.85
2022-10-18T15:46:44.043Z,45.65
2022-10-18T15:49:29.125Z,45.54
2022-10-18T15:52:21.371Z,45.75
2022-10-18T15:57:20.328Z,46.45
2022-10-18T15:59:54.118Z,46.43
2022-10-18T16:02:20.964Z,46.33
2022-10-18T16:04:47.950Z,46.88
2022-10-18T16:07:14.570Z,46.99
2022-10-18T16:09:41.151Z,47.55
2022-10-18T16:12:07.703Z,48.28
2022-10-18T16:14:35.104Z,48.36
2022-10-18T16:17:04.839Z,48.77
2022-10-18T16:19:32.288Z,49.50
2022-10-18T16:22:05.228Z,48.62
2022-10-18T16:24:33.122Z,49.09
2022-10-18T16:26:59.791Z,49.35
2022-10-18T16:29:28.725Z,50.01
2022-10-18T16:31:58.501Z,49.65
2022-10-18T16:34:27.140Z,50.22
2022-10-18T16:36:54.101Z,50.02
2022-10-18T16:39:22.463Z,50.59
2022-10-18T16:41:49.270Z,50.75
2022-10-18T16:44:16.795Z,51.06
2022-10-18T16:46:44.096Z,52.77
2022-10-18T16:49:25.051Z,52.05
2022-10-18T16:51:52.834Z,51.98
2022-10-18T16:54:19.667Z,52.16
2022-10-18T16:56:47.942Z,52.21
2022-10-18T16:59:28.101Z,52.22
2022-10-18T17:01:54.979Z,52.08
2022-10-18T17:04:21.695Z,52.29
2022-10-18T17:06:49.180Z,52.47
2022-10-18T17:09:16.455Z,53.00
2022-10-18T17:11:43.397Z,52.72
2022-10-18T17:14:10.036Z,52.96
2022-10-18T17:16:38.901Z,53.66
2022-10-18T17:19:08.272Z,54.52
2022-10-18T17:21:35.297Z,54.51
2022-10-18T17:24:03.303Z,54.88
2022-10-18T17:26:30.507Z,54.73
2022-10-18T17:29:04.306Z,54.80
2022-10-18T17:31:31.730Z,54.95
2022-10-18T17:34:01.607Z,55.07
2022-10-18T17:36:29.856Z,55.08
2022-10-18T17:38:57.174Z,55.39
2022-10-18T17:41:23.960Z,55.67
2022-10-18T17:43:50.704Z,55.72
2022-10-18T17:46:18.091Z,55.71
2022-10-18T17:48:45.080Z,55.31
2022-10-18T17:51:14.303Z,56.45
2022-10-18T17:53:40.946Z,55.97
2022-10-18T17:56:08.243Z,56.24
2022-10-18T17:58:35.648Z,56.95
2022-10-18T18:01:09.574Z,56.97
2022-10-18T18:03:36.216Z,57.43
2022-10-18T18:06:15.914Z,57.90
2022-10-18T18:08:42.709Z,58.34
2022-10-18T18:11:09.378Z,57.85
2022-10-18T18:13:35.967Z,58.22
2022-10-18T18:16:21.135Z,58.92
2022-10-18T18:18:50.662Z,59.76
2022-10-18T18:21:18.486Z,60.86
2022-10-18T18:23:45.436Z,61.74
2022-10-18T18:26:12.746Z,62.60
2022-10-18T18:28:39.492Z,62.08
2022-10-18T18:31:11.582Z,63.10
2022-10-18T18:33:38.501Z,63.06
2022-10-18T18:36:06.795Z,63.58
2022-10-18T18:38:35.305Z,63.92
2022-10-18T18:41:07.599Z,64.74
2022-10-18T18:43:35.222Z,66.13
2022-10-18T18:46:02.591Z,65.64
2022-10-18T18:48:29.490Z,66.25
2022-10-18T18:50:56.127Z,66.58
2022-10-18T18:53:25.847Z,67.15
2022-10-18T18:55:53.884Z,67.09
2022-10-18T18:58:20.494Z,67.94
2022-10-18T19:00:47.193Z,68.10
2022-10-18T19:03:14.035Z,68.40
2022-10-18T19:05:40.738Z,69.27
2022-10-18T19:08:07.418Z,70.43
2022-10-18T19:10:34.060Z,71.21
2022-10-18T19:13:00.734Z,71.68
2022-10-18T19:15:27.407Z,72.34
2022-10-18T19:17:55.708Z,72.50
2022-10-18T19:20:22.426Z,73.04
2022-10-18T19:22:49.118Z,73.19
2022-10-18T19:25:15.666Z,74.12
2022-10-18T19:27:42.218Z,73.81
2022-10-18T19:30:11.170Z,74.27
2022-10-18T19:32:37.741Z,74.96
2022-10-18T19:35:04.510Z,74.72
2022-10-18T19:37:31.455Z,75.27
2022-10-18T19:39:59.482Z,75.64
2022-10-18T19:42:30.292Z,75.71
2022-10-18T19:44:57.941Z,76.16
2022-10-18T19:47:24.493Z,76.65
2022-10-18T19:49:52.705Z,76.65
2022-10-18T19:52:19.681Z,76.29
2022-10-18T19:54:48.585Z,77.17
2022-10-18T19:57:15.187Z,77.47
2022-10-18T20:02:15.097Z,78.65
2022-10-18T20:04:41.729Z,78.06
2022-10-18T20:07:08.984Z,79.56
2022-10-18T20:09:35.558Z,78.78
2022-10-18T20:12:02.094Z,78.99
2022-10-18T20:14:28.662Z,79.93
2022-10-18T20:16:55.191Z,80.56
2022-10-18T20:19:21.757Z,81.50
2022-10-18T20:21:48.344Z,82.23
2022-10-18T20:24:14.882Z,83.40
2022-10-18T20:26:43.388Z,84.61
2022-10-18T20:29:10.063Z,85.18
2022-10-18T20:31:38.869Z,86.73
2022-10-18T20:34:13.753Z,86.46
2022-10-18T20:36:40.724Z,86.57
2022-10-18T20:39:07.760Z,87.00
2022-10-18T20:41:37.979Z,87.39
2022-10-18T20:44:10.623Z,88.78
2022-10-18T20:46:38.487Z,88.27
2022-10-18T20:49:07.129Z,89.53
2022-10-18T20:51:34.568Z,89.97
2022-10-18T20:56:38.728Z,90.93
2022-10-18T20:59:06.323Z,92.65
2022-10-18T21:01:34.388Z,93.18
2022-10-18T21:04:02.978Z,93.15
2022-10-18T21:06:32.124Z,94.42
2022-10-18T21:09:01.368Z,94.34
2022-10-18T21:11:30.253Z,94.85
2022-10-18T21:14:00.219Z,95.47
2022-10-18T21:16:27.407Z,95.13
2022-10-18T21:18:54.862Z,96.11
2022-10-18T21:21:24.036Z,97.32
2022-10-18T21:23:51.718Z,97.80
2022-10-18T21:26:21.259Z,97.32
2022-10-18T21:28:50.487Z,98.48
2022-10-18T21:31:22.400Z,98.17
2022-10-18T21:33:54.178Z,97.41
2022-10-18T21:36:21.355Z,98.00
2022-10-18T21:38:48.143Z,98.60
2022-10-18T21:41:16.162Z,98.41
2022-10-18T21:43:45.188Z,99.28
2022-10-18T21:46:12.940Z,99.69
2022-10-18T21:48:46.767Z,100.00
2022-10-18T21:51:15.006Z,100.00
2022-10-18T21:53:46.862Z,100.00
2022-10-18T21:56:22.442Z,100.00
2022-10-18T21:58:49.139Z,100.00
2022-10-18T22:01:25.277Z,100.00
2022-10-18T22:03:53.930Z,100.00
2022-10-18T22:06:21.267Z,100.00
2022-10-18T22:08:50.645Z,100.00
2022-10-18T22:11:20.368Z,100.00
2022-10-18T22:13:47.142Z,100.00
2022-10-18T22:16:15.158Z,100.00
2022-10-18T22:18:42.851Z,100.00
2022-10-18T22:21:11.671Z,100.00
2022-10-18T22:23:47.359Z,100.00
2022-10-18T22:26:23.260Z,100.00
2022-10-18T22:29:01.331Z,100.00
2022-10-18T22:31:30.797Z,100.00
2022-10-18T22:34:03.276Z,100.00
2022-10-18T22:36:30.471Z,100.00
2022-10-18T22:38:58.009Z,100.00
2022-10-18T22:41:24.708Z,100.00
2022-10-18T22:43:52.471Z,100.00
2022-10-18T22:46:19.723Z,100.00
2022-10-18T22:48:46.576Z,100.00
2022-10-18T22:51:13.130Z,100.00
2022-10-18T22:53:40.963Z,100.00
2022-10-18T22:56:09.867Z,100.00
2022-10-18T22:58:36.441Z,100.00
2022-10-18T23:01:08.734Z,100.00
2022-10-18T23:03:35.932Z,100.00
2022-10-18T23:06:02.721Z,100.00
2022-10-18T23:08:29.978Z,100.00
2022-10-18T23:10:58.805Z,100.00
2022-10-18T23:13:27.234Z,100.00
2022-10-18T23:15:53.781Z,100.00
2022-10-18T23:18:20.520Z,100.00
2022-10-18T23:20:47.053Z,100.00
2022-10-18T23:23:13.627Z,100.00
2022-10-18T23:25:40.568Z,100.00
2022-10-18T23:28:07.396Z,100.00
2022-10-18T23:30:34.304Z,100.00
2022-10-18T23:33:00.937Z,100.00
2022-10-18T23:35:28.787Z,100.00
2022-10-18T23:37:55.318Z,100.00
2022-10-18T23:40:21.845Z,100.00
2022-10-18T23:42:48.372Z,100.00
2022-10-18T23:45:14.968Z,100.00
2022-10-18T23:47:41.527Z,100.00
2022-10-18T23:50:08.466Z,100.00
2022-10-18T23:52:35.092Z,100.00
2022-10-18T23:55:01.656Z,100.00
2022-10-18T23:57:28.254Z,100.00
2022-10-18T23:59:54.941Z,100.00
